createdAt,value
2022-10-07T00:02:01.746Z,0.93
2022-10-07T00:04:30.052Z,0.98
2022-10-07T00:06:59.632Z,0.88
2022-10-07T00:09:30.680Z,0.88
2022-10-07T00:11:59.420Z,0.70
2022-10-07T00:14:27.751Z,0.82
2022-10-07T00:16:56.155Z,1.02
2022-10-07T00:19:25.792Z,0.60
2022-10-07T00:21:55.924Z,1.05
2022-10-07T00:24:24.252Z,0.70
2022-10-07T00:26:52.552Z,0.80
2022-10-07T00:29:23.685Z,0.80
2022-10-07T00:31:56.923Z,0.70
2022-10-07T00:34:32.696Z,0.60
2022-10-07T00:37:00.930Z,0.57
2022-10-07T00:39:29.323Z,0.60
2022-10-07T00:41:57.603Z,0.98
2022-10-07T00:44:44.729Z,0.63
2022-10-07T00:47:23.816Z,0.80
2022-10-07T00:49:57.443Z,0.70
2022-10-07T00:52:27.328Z,0.70
2022-10-07T00:54:56.159Z,0.73
2022-10-07T00:57:25.265Z,0.80
2022-10-07T00:59:55.114Z,0.68
2022-10-07T01:02:26.601Z,0.60
2022-10-07T01:04:56.317Z,0.60
2022-10-07T01:07:24.585Z,0.80
2022-10-07T01:09:53.222Z,0.60
2022-10-07T01:12:28.682Z,0.63
2022-10-07T01:15:00.176Z,0.80
2022-10-07T01:17:33.824Z,0.60
2022-10-07T01:20:12.989Z,0.85
2022-10-07T01:22:45.537Z,0.82
2022-10-07T01:25:26.365Z,0.93
2022-10-07T01:27:56.301Z,0.80
2022-10-07T01:30:27.058Z,0.70
2022-10-07T01:32:59.130Z,0.70
2022-10-07T01:35:28.118Z,0.80
2022-10-07T01:37:58.068Z,0.80
2022-10-07T01:40:28.220Z,0.63
2022-10-07T01:42:57.825Z,0.75
2022-10-07T01:45:26.206Z,0.90
2022-10-07T01:47:54.490Z,0.70
2022-10-07T01:50:24.944Z,0.88
2022-10-07T01:53:01.506Z,0.82
2022-10-07T01:55:37.463Z,0.80
2022-10-07T01:58:13.407Z,0.40
2022-10-07T02:00:43.663Z,0.70
2022-10-07T02:03:47.530Z,1.10
2022-10-07T02:06:19.902Z,0.57
2022-10-07T02:08:49.931Z,0.98
2022-10-07T02:11:19.875Z,0.57
2022-10-07T02:13:55.795Z,0.90
2022-10-07T02:16:27.855Z,0.60
2022-10-07T02:18:56.261Z,0.60
2022-10-07T02:21:25.829Z,0.55
2022-10-07T02:23:54.167Z,0.80
2022-10-07T02:26:22.711Z,0.93
2022-10-07T02:28:53.366Z,0.77
2022-10-07T02:31:23.521Z,0.70
2022-10-07T02:33:53.935Z,0.80
2022-10-07T02:36:23.938Z,0.65
2022-10-07T02:38:52.780Z,0.93
2022-10-07T02:41:32.147Z,0.98
2022-10-07T02:44:08.033Z,0.75
2022-10-07T02:46:38.559Z,0.43
2022-10-07T02:49:07.596Z,0.68
2022-10-07T02:51:38.692Z,1.25
2022-10-07T02:54:06.962Z,0.70
2022-10-07T02:56:36.412Z,0.75
2022-10-07T02:59:06.777Z,0.60
2022-10-07T03:01:36.965Z,0.57
2022-10-07T03:04:05.888Z,0.80
2022-10-07T03:06:35.780Z,0.80
2022-10-07T03:09:06.850Z,0.88
2022-10-07T03:11:35.113Z,0.65
2022-10-07T03:14:05.350Z,0.80
2022-10-07T03:16:33.786Z,0.68
2022-10-07T03:19:02.286Z,0.88
2022-10-07T03:21:32.954Z,0.60
2022-10-07T03:24:04.710Z,0.90
2022-10-07T03:26:33.476Z,0.80
2022-10-07T03:29:01.784Z,0.47
2022-10-07T03:31:31.455Z,0.73
2022-10-07T03:33:59.857Z,0.80
2022-10-07T03:36:28.119Z,0.57
2022-10-07T03:38:56.530Z,0.80
2022-10-07T03:41:25.306Z,0.80
2022-10-07T03:43:53.541Z,0.80
2022-10-07T03:46:21.848Z,0.80
2022-10-07T03:48:51.510Z,0.70
2022-10-07T03:51:19.784Z,0.60
2022-10-07T03:53:48.032Z,1.00
2022-10-07T03:56:16.301Z,0.57
2022-10-07T03:58:44.546Z,0.60
2022-10-07T04:01:13.876Z,0.63
2022-10-07T04:03:42.120Z,0.60
2022-10-07T04:06:11.727Z,0.60
2022-10-07T04:08:41.012Z,0.60
2022-10-07T04:11:11.691Z,0.82
2022-10-07T04:13:40.527Z,0.70
2022-10-07T04:16:12.049Z,0.70
2022-10-07T04:18:41.828Z,0.68
2022-10-07T04:21:13.799Z,0.60
2022-10-07T04:23:42.372Z,0.75
2022-10-07T04:26:11.475Z,0.60
2022-10-07T04:28:39.901Z,0.60
2022-10-07T04:31:08.872Z,0.60
2022-10-07T04:33:39.530Z,0.60
2022-10-07T04:36:08.748Z,0.55
2022-10-07T04:38:42.503Z,0.63
2022-10-07T04:41:10.872Z,0.70
2022-10-07T04:43:39.146Z,0.60
2022-10-07T04:46:11.366Z,0.50
2022-10-07T04:48:39.655Z,0.60
2022-10-07T04:51:11.148Z,0.73
2022-10-07T04:53:40.742Z,0.70
2022-10-07T04:56:09.592Z,0.70
2022-10-07T04:58:37.955Z,1.13
2022-10-07T05:01:09.226Z,0.60
2022-10-07T05:03:40.519Z,0.50
2022-10-07T05:06:09.499Z,0.57
2022-10-07T05:08:37.769Z,0.65
2022-10-07T05:11:07.446Z,0.70
2022-10-07T05:13:38.713Z,0.60
2022-10-07T05:16:09.420Z,0.80
2022-10-07T05:18:41.561Z,0.70
2022-10-07T05:21:10.239Z,0.50
2022-10-07T05:23:38.604Z,0.60
2022-10-07T05:26:09.077Z,0.80
2022-10-07T05:28:37.700Z,0.88
2022-10-07T05:31:09.529Z,0.82
2022-10-07T05:33:37.850Z,0.60
2022-10-07T05:36:06.837Z,0.82
2022-10-07T05:38:37.896Z,0.55
2022-10-07T05:41:10.669Z,0.98
2022-10-07T05:43:42.078Z,0.70
2022-10-07T05:46:12.127Z,0.60
2022-10-07T05:48:41.577Z,0.90
2022-10-07T05:51:09.958Z,0.77
2022-10-07T05:53:41.017Z,1.63
2022-10-07T05:56:12.602Z,0.68
2022-10-07T05:58:40.874Z,0.73
2022-10-07T06:01:17.300Z,0.70
2022-10-07T06:03:49.360Z,0.80
2022-10-07T06:06:17.650Z,0.60
2022-10-07T06:08:45.931Z,0.90
2022-10-07T06:11:33.896Z,0.80
2022-10-07T06:14:02.270Z,0.63
2022-10-07T06:16:30.548Z,0.70
2022-10-07T06:18:59.765Z,0.60
2022-10-07T06:21:28.662Z,0.75
2022-10-07T06:23:57.818Z,0.75
2022-10-07T06:26:27.838Z,0.60
2022-10-07T06:28:56.091Z,1.00
2022-10-07T06:31:25.584Z,0.45
2022-10-07T06:33:54.079Z,0.63
2022-10-07T06:36:22.372Z,0.73
2022-10-07T06:38:51.497Z,0.55
2022-10-07T06:41:20.155Z,0.55
2022-10-07T06:43:49.767Z,0.85
2022-10-07T06:46:20.925Z,0.45
2022-10-07T06:48:50.308Z,0.60
2022-10-07T06:51:19.853Z,0.40
2022-10-07T06:53:51.383Z,0.73
2022-10-07T06:56:19.653Z,0.50
2022-10-07T06:58:49.724Z,0.80
2022-10-07T07:01:20.897Z,0.52
2022-10-07T07:03:49.218Z,1.05
2022-10-07T07:06:17.551Z,0.80
2022-10-07T07:08:46.201Z,0.60
2022-10-07T07:11:31.389Z,0.50
2022-10-07T07:14:03.171Z,0.82
2022-10-07T07:16:31.452Z,0.90
2022-10-07T07:19:01.707Z,0.80
2022-10-07T07:21:33.481Z,0.73
2022-10-07T07:24:05.069Z,0.50
2022-10-07T07:26:33.337Z,1.00
2022-10-07T07:29:04.208Z,0.70
2022-10-07T07:31:33.612Z,0.70
2022-10-07T07:34:03.244Z,0.80
2022-10-07T07:36:33.154Z,1.00
2022-10-07T07:39:02.355Z,0.65
2022-10-07T07:41:31.992Z,0.90
2022-10-07T07:44:03.388Z,0.70
2022-10-07T07:46:34.445Z,0.88
2022-10-07T07:49:02.727Z,0.90
2022-10-07T07:51:31.019Z,0.80
2022-10-07T07:54:00.610Z,1.00
2022-10-07T07:56:31.892Z,0.77
2022-10-07T07:59:00.146Z,1.35
2022-10-07T08:01:32.041Z,1.02
2022-10-07T08:04:00.786Z,1.23
2022-10-07T08:06:30.165Z,1.10
2022-10-07T08:08:59.342Z,0.88
2022-10-07T08:11:28.540Z,1.10
2022-10-07T08:13:57.095Z,1.42
2022-10-07T08:16:27.212Z,1.52
2022-10-07T08:18:57.455Z,1.50
2022-10-07T08:21:27.564Z,1.40
2022-10-07T08:23:57.491Z,1.10
2022-10-07T08:26:32.775Z,1.50
2022-10-07T08:29:01.372Z,1.70
2022-10-07T08:31:30.076Z,1.90
2022-10-07T08:34:01.254Z,1.60
2022-10-07T08:36:31.724Z,2.20
2022-10-07T08:38:59.981Z,1.80
2022-10-07T08:41:42.634Z,2.08
2022-10-07T08:44:22.323Z,2.50
2022-10-07T08:47:00.022Z,2.30
2022-10-07T08:49:38.438Z,2.30
2022-10-07T08:52:40.022Z,2.13
2022-10-07T08:55:18.533Z,1.85
2022-10-07T08:57:51.762Z,2.58
2022-10-07T09:00:21.159Z,2.90
2022-10-07T09:03:01.157Z,2.58
2022-10-07T09:05:35.558Z,1.85
2022-10-07T09:08:05.775Z,1.85
2022-10-07T09:10:35.422Z,2.05
2022-10-07T09:13:05.330Z,2.38
2022-10-07T09:15:38.987Z,2.28
2022-10-07T09:18:11.659Z,2.05
2022-10-07T09:20:44.067Z,2.22
2022-10-07T09:23:15.336Z,2.15
2022-10-07T09:25:43.713Z,1.75
2022-10-07T09:28:19.667Z,1.88
2022-10-07T09:30:50.839Z,1.70
2022-10-07T09:33:21.751Z,1.70
2022-10-07T09:35:57.525Z,1.60
2022-10-07T09:38:31.386Z,1.80
2022-10-07T09:41:17.852Z,1.60
2022-10-07T09:43:56.784Z,1.65
2022-10-07T09:46:47.075Z,1.45
2022-10-07T09:49:31.604Z,1.42
2022-10-07T09:52:02.081Z,1.70
2022-10-07T09:54:30.966Z,2.15
2022-10-07T09:57:00.071Z,1.83
2022-10-07T09:59:29.212Z,1.45
2022-10-07T10:01:59.818Z,1.48
2022-10-07T10:04:32.524Z,1.27
2022-10-07T10:07:05.721Z,1.58
2022-10-07T10:09:34.115Z,1.65
2022-10-07T10:12:12.273Z,1.40
2022-10-07T10:14:50.284Z,1.70
2022-10-07T10:17:32.237Z,1.40
2022-10-07T10:20:29.675Z,1.38
2022-10-07T10:22:59.586Z,1.50
2022-10-07T10:25:53.988Z,1.58
2022-10-07T10:28:26.167Z,1.30
2022-10-07T10:31:00.923Z,1.40
2022-10-07T10:33:30.949Z,1.70
2022-10-07T10:36:14.269Z,1.17
2022-10-07T10:38:47.063Z,1.50
2022-10-07T10:41:23.391Z,1.30
2022-10-07T10:44:02.916Z,1.70
2022-10-07T10:46:40.182Z,1.58
2022-10-07T10:49:13.966Z,1.05
2022-10-07T10:51:48.737Z,1.27
2022-10-07T10:54:25.512Z,1.13
2022-10-07T10:56:58.188Z,1.15
2022-10-07T10:59:39.975Z,1.30
2022-10-07T11:02:20.657Z,1.05
2022-10-07T11:04:50.031Z,2.80
2022-10-07T11:07:21.606Z,1.55
2022-10-07T11:09:52.453Z,1.70
2022-10-07T11:12:23.974Z,1.27
2022-10-07T11:14:57.845Z,1.20
2022-10-07T11:17:30.183Z,1.48
2022-10-07T11:20:04.254Z,1.60
2022-10-07T11:22:37.721Z,1.42
2022-10-07T11:25:26.138Z,1.05
2022-10-07T11:27:54.644Z,1.02
2022-10-07T11:30:23.935Z,1.35
2022-10-07T11:32:55.911Z,1.50
2022-10-07T11:35:27.235Z,1.25
2022-10-07T11:37:58.755Z,1.15
2022-10-07T11:40:29.598Z,1.15
2022-10-07T11:42:58.553Z,1.63
2022-10-07T11:45:28.262Z,1.02
2022-10-07T11:47:58.046Z,1.02
2022-10-07T11:50:27.711Z,1.23
2022-10-07T11:52:57.014Z,1.58
2022-10-07T11:55:32.422Z,1.00
2022-10-07T11:58:01.569Z,1.17
2022-10-07T12:00:31.661Z,0.85
2022-10-07T12:03:12.107Z,1.48
2022-10-07T12:06:11.748Z,1.23
2022-10-07T12:08:41.557Z,0.98
2022-10-07T12:11:46.808Z,1.80
2022-10-07T12:14:31.213Z,1.13
2022-10-07T12:16:59.478Z,1.13
2022-10-07T12:19:27.801Z,0.73
2022-10-07T12:22:18.796Z,1.33
2022-10-07T12:24:48.102Z,1.42
2022-10-07T12:27:18.480Z,1.00
2022-10-07T12:29:51.105Z,1.23
2022-10-07T12:32:42.483Z,0.93
2022-10-07T12:35:54.751Z,0.93
2022-10-07T12:38:24.808Z,0.95
2022-10-07T12:41:04.211Z,0.77
2022-10-07T12:43:43.211Z,0.75
2022-10-07T12:46:12.625Z,1.00
2022-10-07T12:48:42.181Z,1.00
2022-10-07T12:51:14.111Z,0.95
2022-10-07T12:53:42.655Z,1.30
2022-10-07T12:56:10.909Z,0.65
2022-10-07T12:59:36.234Z,0.73
2022-10-07T13:02:41.742Z,1.02
2022-10-07T13:05:38.902Z,0.82
2022-10-07T13:08:45.995Z,0.75
2022-10-07T13:11:49.964Z,0.70
2022-10-07T13:14:19.421Z,1.05
2022-10-07T13:16:49.902Z,0.63
2022-10-07T13:19:26.572Z,0.90
2022-10-07T13:21:57.834Z,0.63
2022-10-07T13:24:26.866Z,0.90
2022-10-07T13:26:55.795Z,0.70
2022-10-07T13:29:29.163Z,0.70
2022-10-07T13:32:04.794Z,0.70
2022-10-07T13:34:34.615Z,0.85
2022-10-07T13:37:02.919Z,0.75
2022-10-07T13:39:31.290Z,0.50
2022-10-07T13:41:59.877Z,0.68
2022-10-07T13:44:29.290Z,0.80
2022-10-07T13:46:59.910Z,0.50
2022-10-07T13:49:29.753Z,0.70
2022-10-07T13:52:00.744Z,0.93
2022-10-07T13:54:34.088Z,1.02
2022-10-07T13:57:02.790Z,0.50
2022-10-07T13:59:36.515Z,0.63
2022-10-07T14:02:04.888Z,1.10
2022-10-07T14:04:34.023Z,0.47
2022-10-07T14:07:09.589Z,0.60
2022-10-07T14:09:46.534Z,0.65
2022-10-07T14:14:45.447Z,0.55
2022-10-07T14:17:24.675Z,0.60
2022-10-07T14:19:54.303Z,0.60
2022-10-07T14:22:30.074Z,0.52
2022-10-07T14:25:00.375Z,0.60
2022-10-07T14:27:42.370Z,0.60
2022-10-07T14:30:55.551Z,0.68
2022-10-07T14:33:44.925Z,0.68
2022-10-07T14:36:14.641Z,0.70
2022-10-07T14:38:48.214Z,0.73
2022-10-07T14:41:17.194Z,0.60
2022-10-07T14:43:47.480Z,0.77
2022-10-07T14:46:25.541Z,0.60
2022-10-07T14:48:54.071Z,0.52
2022-10-07T14:51:23.737Z,0.40
2022-10-07T14:53:54.479Z,0.60
2022-10-07T14:56:26.554Z,0.65
2022-10-07T14:58:55.694Z,0.40
2022-10-07T15:01:23.969Z,0.40
2022-10-07T15:03:52.730Z,0.63
2022-10-07T15:06:21.440Z,0.60
2022-10-07T15:08:49.916Z,0.70
2022-10-07T15:11:20.168Z,0.35
2022-10-07T15:13:48.692Z,0.60
2022-10-07T15:16:17.833Z,0.60
2022-10-07T15:18:51.822Z,0.32
2022-10-07T15:21:21.114Z,0.38
2022-10-07T15:23:51.899Z,0.40
2022-10-07T15:26:24.962Z,0.43
2022-10-07T15:28:56.715Z,0.40
2022-10-07T15:31:25.960Z,0.55
2022-10-07T15:33:57.043Z,0.47
2022-10-07T15:36:25.749Z,0.60
2022-10-07T15:38:54.346Z,0.50
2022-10-07T15:41:34.671Z,0.30
2022-10-07T15:44:04.393Z,0.50
2022-10-07T15:46:32.723Z,0.40
2022-10-07T15:49:01.194Z,0.30
2022-10-07T15:51:30.990Z,0.45
2022-10-07T15:53:59.374Z,0.60
2022-10-07T15:56:27.887Z,0.40
2022-10-07T15:59:00.959Z,0.75
2022-10-07T16:01:34.536Z,0.40
2022-10-07T16:04:03.585Z,0.50
2022-10-07T16:06:32.673Z,0.40
2022-10-07T16:09:01.050Z,0.28
2022-10-07T16:11:29.888Z,0.43
2022-10-07T16:13:59.648Z,0.45
2022-10-07T16:16:28.486Z,0.40
2022-10-07T16:18:58.350Z,0.45
2022-10-07T16:21:29.053Z,0.47
2022-10-07T16:23:58.399Z,0.52
2022-10-07T16:26:29.941Z,0.70
2022-10-07T16:29:19.175Z,0.22
2022-10-07T16:31:47.906Z,0.40
2022-10-07T16:34:17.176Z,0.43
2022-10-07T16:36:47.670Z,0.57
2022-10-07T16:39:17.678Z,0.57
2022-10-07T16:41:46.233Z,0.40
2022-10-07T16:44:15.922Z,0.45
2022-10-07T16:46:44.209Z,0.40
2022-10-07T16:49:13.683Z,0.30
2022-10-07T16:51:42.100Z,0.40
2022-10-07T16:54:12.994Z,0.60
2022-10-07T16:56:41.793Z,1.40
2022-10-07T16:59:11.586Z,1.10
2022-10-07T17:01:41.295Z,1.25
2022-10-07T17:04:14.158Z,0.73
2022-10-07T17:06:44.038Z,1.05
2022-10-07T17:09:13.528Z,0.88
2022-10-07T17:11:44.586Z,0.73
2022-10-07T17:14:18.685Z,0.95
2022-10-07T17:16:49.123Z,0.73
2022-10-07T17:19:18.570Z,0.65
2022-10-07T17:21:47.526Z,0.82
2022-10-07T17:24:15.919Z,0.80
2022-10-07T17:26:44.519Z,1.08
2022-10-07T17:29:16.342Z,0.77
2022-10-07T17:31:48.168Z,0.95
2022-10-07T17:34:21.787Z,0.52
2022-10-07T17:36:52.607Z,0.80
2022-10-07T17:39:21.070Z,0.70
2022-10-07T17:41:49.357Z,0.57
2022-10-07T17:44:21.422Z,0.60
2022-10-07T17:46:50.162Z,0.52
2022-10-07T17:49:20.620Z,0.90
2022-10-07T17:51:48.920Z,0.70
2022-10-07T17:54:20.051Z,0.73
2022-10-07T17:56:48.302Z,0.77
2022-10-07T17:59:16.697Z,0.68
2022-10-07T18:01:45.424Z,0.80
2022-10-07T18:04:14.891Z,0.60
2022-10-07T18:06:45.922Z,0.80
2022-10-07T18:09:18.107Z,0.50
2022-10-07T18:12:04.167Z,0.57
2022-10-07T18:14:53.858Z,0.65
2022-10-07T18:17:22.617Z,0.80
2022-10-07T18:19:50.990Z,1.33
2022-10-07T18:22:20.608Z,1.17
2022-10-07T18:24:49.689Z,0.60
2022-10-07T18:27:17.981Z,1.05
2022-10-07T18:29:48.959Z,0.68
2022-10-07T18:32:17.214Z,0.88
2022-10-07T18:34:45.474Z,0.63
2022-10-07T18:37:13.809Z,0.77
2022-10-07T18:39:43.449Z,0.75
2022-10-07T18:42:11.771Z,0.75
2022-10-07T18:44:40.086Z,0.65
2022-10-07T18:47:08.334Z,0.80
2022-10-07T18:49:36.839Z,0.63
2022-10-07T18:52:07.292Z,0.70
2022-10-07T18:54:35.981Z,0.73
2022-10-07T18:57:05.655Z,0.50
2022-10-07T18:59:33.985Z,0.60
2022-10-07T19:02:02.380Z,0.70
2022-10-07T19:04:32.199Z,0.88
2022-10-07T19:07:00.466Z,0.50
2022-10-07T19:09:28.783Z,0.73
2022-10-07T19:11:57.105Z,0.47
2022-10-07T19:14:26.056Z,0.85
2022-10-07T19:16:54.450Z,0.50
2022-10-07T19:19:23.761Z,0.70
2022-10-07T19:21:53.019Z,0.60
2022-10-07T19:24:41.382Z,0.52
2022-10-07T19:27:09.623Z,0.63
2022-10-07T19:29:39.332Z,0.85
2022-10-07T19:32:08.821Z,0.60
2022-10-07T19:34:39.871Z,0.80
2022-10-07T19:37:08.143Z,1.00
2022-10-07T19:39:39.105Z,0.60
2022-10-07T19:42:07.382Z,0.50
2022-10-07T19:44:38.429Z,0.70
2022-10-07T19:47:08.056Z,0.60
2022-10-07T19:49:38.428Z,0.50
2022-10-07T19:52:06.703Z,0.40
2022-10-07T19:54:36.313Z,0.70
2022-10-07T19:57:10.633Z,0.93
2022-10-07T19:59:38.895Z,0.60
2022-10-07T20:02:09.788Z,0.50
2022-10-07T20:04:41.369Z,0.63
2022-10-07T20:07:09.646Z,0.30
2022-10-07T20:09:37.915Z,0.47
2022-10-07T20:12:06.446Z,0.50
2022-10-07T20:14:35.255Z,1.05
2022-10-07T20:17:06.365Z,0.30
2022-10-07T20:19:36.308Z,0.55
2022-10-07T20:22:04.571Z,0.50
2022-10-07T20:24:37.993Z,0.40
2022-10-07T20:27:06.374Z,0.40
2022-10-07T20:29:54.691Z,0.47
2022-10-07T20:32:22.994Z,0.40
2022-10-07T20:34:52.634Z,0.30
2022-10-07T20:37:21.094Z,0.40
2022-10-07T20:40:07.124Z,0.30
2022-10-07T20:42:35.386Z,0.50
2022-10-07T20:45:03.711Z,0.40
2022-10-07T20:47:33.448Z,0.40
2022-10-07T20:50:03.211Z,0.32
2022-10-07T20:52:32.262Z,0.30
2022-10-07T20:55:00.612Z,0.32
2022-10-07T20:57:33.181Z,0.55
2022-10-07T21:00:05.718Z,0.30
2022-10-07T21:02:38.760Z,0.20
2022-10-07T21:05:10.004Z,0.30
2022-10-07T21:07:38.379Z,0.25
2022-10-07T21:10:07.143Z,0.32
2022-10-07T21:12:35.405Z,0.30
2022-10-07T21:15:04.070Z,0.50
2022-10-07T21:17:32.306Z,0.88
2022-10-07T21:20:01.291Z,1.00
2022-10-07T21:22:30.954Z,0.68
2022-10-07T21:24:59.299Z,1.25
2022-10-07T21:27:27.644Z,1.15
2022-10-07T21:29:56.200Z,1.17
2022-10-07T21:32:24.445Z,0.75
2022-10-07T21:34:56.690Z,0.95
2022-10-07T21:37:25.031Z,0.73
2022-10-07T21:39:54.779Z,0.80
2022-10-07T21:42:25.465Z,0.65
2022-10-07T21:44:53.865Z,1.67
2022-10-07T21:47:24.064Z,0.80
2022-10-07T21:49:52.446Z,1.50
2022-10-07T21:52:20.855Z,0.65
2022-10-07T21:54:49.414Z,0.80
2022-10-07T21:57:19.191Z,0.70
2022-10-07T21:59:47.483Z,0.50
2022-10-07T22:02:15.781Z,0.70
2022-10-07T22:04:44.066Z,0.80
2022-10-07T22:07:29.997Z,0.90
2022-10-07T22:09:58.443Z,0.73
2022-10-07T22:12:28.171Z,0.68
2022-10-07T22:14:56.457Z,0.52
2022-10-07T22:17:25.939Z,0.65
2022-10-07T22:19:56.641Z,0.60
2022-10-07T22:22:24.980Z,0.65
2022-10-07T22:24:56.115Z,0.52
2022-10-07T22:27:30.452Z,0.70
2022-10-07T22:29:58.702Z,0.60
2022-10-07T22:32:26.958Z,0.90
2022-10-07T22:35:15.508Z,0.68
2022-10-07T22:37:44.953Z,0.90
2022-10-07T22:40:13.218Z,0.63
2022-10-07T22:42:54.638Z,0.70
2022-10-07T22:45:22.887Z,0.60
2022-10-07T22:47:51.450Z,0.65
2022-10-07T22:50:19.712Z,1.45
2022-10-07T22:52:50.803Z,0.70
2022-10-07T22:55:21.227Z,0.68
2022-10-07T22:57:51.500Z,0.52
2022-10-07T23:00:20.042Z,0.60
2022-10-07T23:02:51.860Z,0.70
2022-10-07T23:05:22.291Z,0.60
2022-10-07T23:07:50.551Z,0.40
2022-10-07T23:10:18.838Z,0.55
2022-10-07T23:12:47.245Z,0.52
2022-10-07T23:15:19.586Z,0.80
2022-10-07T23:17:47.874Z,0.60
2022-10-07T23:20:19.153Z,0.57
2022-10-07T23:22:47.563Z,0.40
2022-10-07T23:25:16.235Z,0.50
2022-10-07T23:27:44.478Z,0.60
2022-10-07T23:30:13.393Z,0.40
2022-10-07T23:32:45.760Z,1.00
2022-10-07T23:35:16.736Z,0.60
2022-10-07T23:37:45.000Z,0.57
2022-10-07T23:40:13.348Z,0.63
2022-10-07T23:42:41.600Z,0.30
2022-10-07T23:45:13.260Z,0.55
2022-10-07T23:47:43.234Z,0.80
2022-10-07T23:50:13.123Z,0.52
2022-10-07T23:52:43.350Z,0.50
2022-10-07T23:55:12.726Z,0.52
2022-10-07T23:57:41.075Z,0.63
